sensor_id;sensor_type;location;lat;lon;timestamp;temperature;humidity
12452;DHT22;6291;48.924;12.204;2023-03-04T00:03:07;2.20;99.90
12452;DHT22;6291;48.924;12.204;2023-03-04T00:08:12;2.10;99.90
12452;DHT22;6291;48.924;12.204;2023-03-04T00:13:18;2.00;99.90
12452;DHT22;6291;48.924;12.204;2023-03-04T00:18:23;2.00;99.90
12452;DHT22;6291;48.924;12.204;2023-03-04T00:23:26;2.00;99.90
12452;DHT22;6291;48.924;12.204;2023-03-04T00:28:31;1.90;99.90
12452;DHT22;6291;48.924;12.204;2023-03-04T00:33:35;1.90;99.90
12452;DHT22;6291;48.924;12.204;2023-03-04T00:38:39;1.80;99.90
12452;DHT22;6291;48.924;12.204;2023-03-04T00:43:44;1.80;99.90
12452;DHT22;6291;48.924;12.204;2023-03-04T00:48:47;1.70;99.90
12452;DHT22;6291;48.924;12.204;2023-03-04T00:53:51;1.80;99.90
12452;DHT22;6291;48.924;12.204;2023-03-04T00:58:55;1.80;99.90
12452;DHT22;6291;48.924;12.204;2023-03-04T01:03:59;1.80;99.90
12452;DHT22;6291;48.924;12.204;2023-03-04T01:09:03;1.80;99.90
12452;DHT22;6291;48.924;12.204;2023-03-04T01:14:08;1.60;99.90
12452;DHT22;6291;48.924;12.204;2023-03-04T01:19:13;1.50;99.90
12452;DHT22;6291;48.924;12.204;2023-03-04T01:24:17;1.50;99.90
12452;DHT22;6291;48.924;12.204;2023-03-04T01:29:22;3.20;99.90
12452;DHT22;6291;48.924;12.204;2023-03-04T01:34:30;4.90;99.90
12452;DHT22;6291;48.924;12.204;2023-03-04T01:39:33;3.60;99.90
12452;DHT22;6291;48.924;12.204;2023-03-04T01:44:38;1.30;99.90
12452;DHT22;6291;48.924;12.204;2023-03-04T01:49:42;1.20;99.90
12452;DHT22;6291;48.924;12.204;2023-03-04T01:54:46;1.10;99.90
12452;DHT22;6291;48.924;12.204;2023-03-04T02:00:24;0.90;99.90
12452;DHT22;6291;48.924;12.204;2023-03-04T02:05:28;0.70;99.90
12452;DHT22;6291;48.924;12.204;2023-03-04T02:10:32;0.60;99.90
12452;DHT22;6291;48.924;12.204;2023-03-04T02:15:37;0.60;99.90
12452;DHT22;6291;48.924;12.204;2023-03-04T02:20:48;0.40;99.90
12452;DHT22;6291;48.924;12.204;2023-03-04T02:26:12;0.40;99.90
12452;DHT22;6291;48.924;12.204;2023-03-04T02:31:27;3.10;99.90
12452;DHT22;6291;48.924;12.204;2023-03-04T02:36:37;0.60;99.90
12452;DHT22;6291;48.924;12.204;2023-03-04T02:41:45;0.90;99.90
12452;DHT22;6291;48.924;12.204;2023-03-04T02:46:51;0.20;99.90
12452;DHT22;6291;48.924;12.204;2023-03-04T02:52:01;0.20;99.90
12452;DHT22;6291;48.924;12.204;2023-03-04T02:57:10;0.00;99.90
12452;DHT22;6291;48.924;12.204;2023-03-04T03:02:17;0.10;99.90
12452;DHT22;6291;48.924;12.204;2023-03-04T03:07:21;0.10;99.90
12452;DHT22;6291;48.924;12.204;2023-03-04T03:12:26;0.10;99.90
12452;DHT22;6291;48.924;12.204;2023-03-04T03:17:33;-1.20;99.90
12452;DHT22;6291;48.924;12.204;2023-03-04T03:22:38;0.00;99.90
12452;DHT22;6291;48.924;12.204;2023-03-04T03:27:51;-0.10;99.90
12452;DHT22;6291;48.924;12.204;2023-03-04T03:32:58;0.00;99.90
12452;DHT22;6291;48.924;12.204;2023-03-04T03:38:09;-0.10;99.90
12452;DHT22;6291;48.924;12.204;2023-03-04T03:43:17;2.20;99.90
12452;DHT22;6291;48.924;12.204;2023-03-04T03:48:24;-0.30;99.90
12452;DHT22;6291;48.924;12.204;2023-03-04T03:58:39;-0.30;99.90
12452;DHT22;6291;48.924;12.204;2023-03-04T04:03:46;0.00;99.90
12452;DHT22;6291;48.924;12.204;2023-03-04T04:08:50;-0.70;99.90
12452;DHT22;6291;48.924;12.204;2023-03-04T04:13:57;-0.40;99.90
12452;DHT22;6291;48.924;12.204;2023-03-04T04:19:01;-0.90;99.90
12452;DHT22;6291;48.924;12.204;2023-03-04T04:24:23;-0.60;99.90
12452;DHT22;6291;48.924;12.204;2023-03-04T04:29:32;-0.50;99.90
12452;DHT22;6291;48.924;12.204;2023-03-04T04:34:37;-5.00;99.90
12452;DHT22;6291;48.924;12.204;2023-03-04T04:45:01;-0.70;99.90
12452;DHT22;6291;48.924;12.204;2023-03-04T04:50:10;-0.60;99.90
12452;DHT22;6291;48.924;12.204;2023-03-04T04:55:14;-1.30;99.90
12452;DHT22;6291;48.924;12.204;2023-03-04T05:00:20;-0.60;99.90
12452;DHT22;6291;48.924;12.204;2023-03-04T05:05:23;-0.60;99.90
12452;DHT22;6291;48.924;12.204;2023-03-04T05:10:26;-0.50;99.90
12452;DHT22;6291;48.924;12.204;2023-03-04T05:15:31;-0.20;99.90
12452;DHT22;6291;48.924;12.204;2023-03-04T05:20:35;-0.90;99.90
12452;DHT22;6291;48.924;12.204;2023-03-04T05:25:44;-0.90;99.90
12452;DHT22;6291;48.924;12.204;2023-03-04T05:30:54;-0.90;99.90
12452;DHT22;6291;48.924;12.204;2023-03-04T05:35:58;-0.90;99.90
12452;DHT22;6291;48.924;12.204;2023-03-04T05:41:05;-0.70;99.90
12452;DHT22;6291;48.924;12.204;2023-03-04T05:46:17;0.50;99.90
12452;DHT22;6291;48.924;12.204;2023-03-04T05:51:28;-0.60;99.90
12452;DHT22;6291;48.924;12.204;2023-03-04T05:56:33;-0.60;99.90
12452;DHT22;6291;48.924;12.204;2023-03-04T06:01:38;-0.60;99.90
12452;DHT22;6291;48.924;12.204;2023-03-04T06:06:42;-0.60;99.90
12452;DHT22;6291;48.924;12.204;2023-03-04T06:11:47;-0.30;99.90
12452;DHT22;6291;48.924;12.204;2023-03-04T06:16:52;-0.40;99.90
12452;DHT22;6291;48.924;12.204;2023-03-04T06:21:55;-0.60;99.90
12452;DHT22;6291;48.924;12.204;2023-03-04T06:27:01;-0.10;99.90
12452;DHT22;6291;48.924;12.204;2023-03-04T06:32:06;-0.30;99.90
12452;DHT22;6291;48.924;12.204;2023-03-04T06:37:10;-0.40;99.90
12452;DHT22;6291;48.924;12.204;2023-03-04T06:42:18;-0.40;99.90
12452;DHT22;6291;48.924;12.204;2023-03-04T06:47:40;-0.20;99.90
12452;DHT22;6291;48.924;12.204;2023-03-04T06:52:48;2.00;99.90
12452;DHT22;6291;48.924;12.204;2023-03-04T06:58:01;-0.20;99.90
12452;DHT22;6291;48.924;12.204;2023-03-04T07:03:07;-0.10;99.90
12452;DHT22;6291;48.924;12.204;2023-03-04T07:08:11;0.10;99.90
12452;DHT22;6291;48.924;12.204;2023-03-04T07:13:14;0.10;99.90
12452;DHT22;6291;48.924;12.204;2023-03-04T07:18:19;0.20;99.90
12452;DHT22;6291;48.924;12.204;2023-03-04T07:23:22;0.10;99.90
12452;DHT22;6291;48.924;12.204;2023-03-04T07:28:26;0.00;99.90
12452;DHT22;6291;48.924;12.204;2023-03-04T07:33:30;0.60;99.90
12452;DHT22;6291;48.924;12.204;2023-03-04T07:38:34;0.90;99.90
12452;DHT22;6291;48.924;12.204;2023-03-04T07:43:37;1.10;99.90
12452;DHT22;6291;48.924;12.204;2023-03-04T07:48:42;2.30;99.90
12452;DHT22;6291;48.924;12.204;2023-03-04T07:53:48;1.70;99.90
12452;DHT22;6291;48.924;12.204;2023-03-04T07:58:51;1.90;99.90
12452;DHT22;6291;48.924;12.204;2023-03-04T08:03:57;1.60;99.90
12452;DHT22;6291;48.924;12.204;2023-03-04T08:09:03;1.50;99.90
12452;DHT22;6291;48.924;12.204;2023-03-04T08:14:07;1.00;99.90
12452;DHT22;6291;48.924;12.204;2023-03-04T08:19:12;1.00;99.90
12452;DHT22;6291;48.924;12.204;2023-03-04T08:24:15;1.00;99.90
12452;DHT22;6291;48.924;12.204;2023-03-04T08:29:21;0.90;99.90
12452;DHT22;6291;48.924;12.204;2023-03-04T08:34:27;0.90;99.90
12452;DHT22;6291;48.924;12.204;2023-03-04T08:39:30;1.10;99.90
12452;DHT22;6291;48.924;12.204;2023-03-04T08:44:34;0.90;99.90
12452;DHT22;6291;48.924;12.204;2023-03-04T08:49:38;1.10;99.90
12452;DHT22;6291;48.924;12.204;2023-03-04T08:54:42;1.40;99.90
12452;DHT22;6291;48.924;12.204;2023-03-04T08:59:45;1.40;99.90
12452;DHT22;6291;48.924;12.204;2023-03-04T09:04:49;1.40;99.90
12452;DHT22;6291;48.924;12.204;2023-03-04T09:09:53;1.40;99.90
12452;DHT22;6291;48.924;12.204;2023-03-04T09:14:56;1.10;99.90
12452;DHT22;6291;48.924;12.204;2023-03-04T09:20:14;1.30;99.90
12452;DHT22;6291;48.924;12.204;2023-03-04T09:25:17;1.60;99.90
12452;DHT22;6291;48.924;12.204;2023-03-04T09:30:20;1.60;99.90
12452;DHT22;6291;48.924;12.204;2023-03-04T09:35:25;1.50;99.90
12452;DHT22;6291;48.924;12.204;2023-03-04T09:40:35;1.30;99.90
12452;DHT22;6291;48.924;12.204;2023-03-04T09:45:42;1.70;99.90
12452;DHT22;6291;48.924;12.204;2023-03-04T09:50:56;1.20;99.90
12452;DHT22;6291;48.924;12.204;2023-03-04T09:56:02;1.30;99.90
12452;DHT22;6291;48.924;12.204;2023-03-04T10:01:10;1.20;99.90
12452;DHT22;6291;48.924;12.204;2023-03-04T10:06:18;1.50;99.90
12452;DHT22;6291;48.924;12.204;2023-03-04T10:11:25;1.60;99.90
12452;DHT22;6291;48.924;12.204;2023-03-04T10:16:35;1.70;99.90
12452;DHT22;6291;48.924;12.204;2023-03-04T10:21:44;1.20;99.90
12452;DHT22;6291;48.924;12.204;2023-03-04T10:26:51;1.40;99.90
12452;DHT22;6291;48.924;12.204;2023-03-04T10:31:55;1.10;99.90
12452;DHT22;6291;48.924;12.204;2023-03-04T10:37:02;1.10;99.90
12452;DHT22;6291;48.924;12.204;2023-03-04T10:42:22;0.90;99.90
12452;DHT22;6291;48.924;12.204;2023-03-04T10:47:29;0.90;99.90
12452;DHT22;6291;48.924;12.204;2023-03-04T10:52:38;1.20;99.90
12452;DHT22;6291;48.924;12.204;2023-03-04T10:57:44;1.30;99.90
12452;DHT22;6291;48.924;12.204;2023-03-04T11:02:50;1.30;99.90
12452;DHT22;6291;48.924;12.204;2023-03-04T11:07:57;1.30;99.90
12452;DHT22;6291;48.924;12.204;2023-03-04T11:13:11;1.20;99.90
12452;DHT22;6291;48.924;12.204;2023-03-04T11:18:15;1.20;99.90
12452;DHT22;6291;48.924;12.204;2023-03-04T11:23:27;1.40;99.90
12452;DHT22;6291;48.924;12.204;2023-03-04T11:28:41;1.30;99.90
12452;DHT22;6291;48.924;12.204;2023-03-04T11:33:54;1.30;99.90
12452;DHT22;6291;48.924;12.204;2023-03-04T11:39:02;1.90;99.90
12452;DHT22;6291;48.924;12.204;2023-03-04T11:44:10;1.60;99.90
12452;DHT22;6291;48.924;12.204;2023-03-04T11:55:17;1.80;99.90
12452;DHT22;6291;48.924;12.204;2023-03-04T12:00:33;1.60;99.90
12452;DHT22;6291;48.924;12.204;2023-03-04T12:05:47;1.50;99.90
12452;DHT22;6291;48.924;12.204;2023-03-04T12:11:02;1.70;99.90
12452;DHT22;6291;48.924;12.204;2023-03-04T12:16:20;1.50;99.90
12452;DHT22;6291;48.924;12.204;2023-03-04T12:21:50;1.40;99.90
12452;DHT22;6291;48.924;12.204;2023-03-04T12:27:02;1.50;99.90
12452;DHT22;6291;48.924;12.204;2023-03-04T12:32:17;1.80;99.90
12452;DHT22;6291;48.924;12.204;2023-03-04T12:37:43;1.80;99.90
12452;DHT22;6291;48.924;12.204;2023-03-04T12:43:01;1.80;99.90
12452;DHT22;6291;48.924;12.204;2023-03-04T12:48:20;2.00;99.90
12452;DHT22;6291;48.924;12.204;2023-03-04T12:53:31;2.20;99.90
12452;DHT22;6291;48.924;12.204;2023-03-04T12:58:37;2.00;99.90
12452;DHT22;6291;48.924;12.204;2023-03-04T13:03:45;-1.60;99.90
12452;DHT22;6291;48.924;12.204;2023-03-04T13:08:57;2.10;99.90
12452;DHT22;6291;48.924;12.204;2023-03-04T13:14:05;2.10;99.90
12452;DHT22;6291;48.924;12.204;2023-03-04T13:19:40;2.10;99.90
12452;DHT22;6291;48.924;12.204;2023-03-04T13:24:46;3.80;99.90
12452;DHT22;6291;48.924;12.204;2023-03-04T13:29:53;1.90;99.90
12452;DHT22;6291;48.924;12.204;2023-03-04T13:34:59;2.00;99.90
12452;DHT22;6291;48.924;12.204;2023-03-04T13:40:34;2.00;99.90
12452;DHT22;6291;48.924;12.204;2023-03-04T13:45:39;2.00;99.90
12452;DHT22;6291;48.924;12.204;2023-03-04T13:50:45;1.90;99.90
12452;DHT22;6291;48.924;12.204;2023-03-04T13:56:21;2.10;99.90
12452;DHT22;6291;48.924;12.204;2023-03-04T14:01:28;2.00;99.90
12452;DHT22;6291;48.924;12.204;2023-03-04T14:06:32;2.00;99.90
12452;DHT22;6291;48.924;12.204;2023-03-04T14:11:38;4.20;99.90
12452;DHT22;6291;48.924;12.204;2023-03-04T14:16:48;2.20;99.90
12452;DHT22;6291;48.924;12.204;2023-03-04T14:21:52;-0.10;99.90
12452;DHT22;6291;48.924;12.204;2023-03-04T14:27:10;2.10;99.90
12452;DHT22;6291;48.924;12.204;2023-03-04T14:32:15;2.10;99.90
12452;DHT22;6291;48.924;12.204;2023-03-04T14:37:21;2.10;99.90
12452;DHT22;6291;48.924;12.204;2023-03-04T14:42:32;2.20;99.90
12452;DHT22;6291;48.924;12.204;2023-03-04T14:47:39;2.30;99.90
12452;DHT22;6291;48.924;12.204;2023-03-04T14:52:47;2.00;99.90
12452;DHT22;6291;48.924;12.204;2023-03-04T14:57:54;2.20;99.90
12452;DHT22;6291;48.924;12.204;2023-03-04T15:03:20;2.30;99.90
12452;DHT22;6291;48.924;12.204;2023-03-04T15:08:27;2.20;99.90
12452;DHT22;6291;48.924;12.204;2023-03-04T15:13:38;2.30;99.90
12452;DHT22;6291;48.924;12.204;2023-03-04T15:18:58;2.30;99.90
12452;DHT22;6291;48.924;12.204;2023-03-04T15:24:04;2.30;99.90
12452;DHT22;6291;48.924;12.204;2023-03-04T15:29:12;2.40;99.90
12452;DHT22;6291;48.924;12.204;2023-03-04T15:34:19;2.40;99.90
12452;DHT22;6291;48.924;12.204;2023-03-04T15:39:22;2.20;99.90
12452;DHT22;6291;48.924;12.204;2023-03-04T15:44:28;2.10;99.90
12452;DHT22;6291;48.924;12.204;2023-03-04T15:49:33;2.10;99.90
12452;DHT22;6291;48.924;12.204;2023-03-04T15:54:36;2.00;99.90
12452;DHT22;6291;48.924;12.204;2023-03-04T15:59:39;2.00;99.90
12452;DHT22;6291;48.924;12.204;2023-03-04T16:04:44;2.10;99.90
12452;DHT22;6291;48.924;12.204;2023-03-04T16:09:50;2.10;99.90
12452;DHT22;6291;48.924;12.204;2023-03-04T16:14:55;2.10;99.90
12452;DHT22;6291;48.924;12.204;2023-03-04T16:20:00;2.10;99.90
12452;DHT22;6291;48.924;12.204;2023-03-04T16:25:04;2.10;99.90
12452;DHT22;6291;48.924;12.204;2023-03-04T16:30:12;2.00;99.90
12452;DHT22;6291;48.924;12.204;2023-03-04T16:35:19;1.90;99.90
12452;DHT22;6291;48.924;12.204;2023-03-04T16:40:27;1.80;99.90
12452;DHT22;6291;48.924;12.204;2023-03-04T16:45:31;1.80;99.90
12452;DHT22;6291;48.924;12.204;2023-03-04T16:50:38;1.70;99.90
12452;DHT22;6291;48.924;12.204;2023-03-04T16:55:41;2.30;99.90
12452;DHT22;6291;48.924;12.204;2023-03-04T17:00:45;1.70;99.90
12452;DHT22;6291;48.924;12.204;2023-03-04T17:05:50;1.60;99.90
12452;DHT22;6291;48.924;12.204;2023-03-04T17:10:53;1.60;99.90
12452;DHT22;6291;48.924;12.204;2023-03-04T17:15:59;1.60;99.90
12452;DHT22;6291;48.924;12.204;2023-03-04T17:21:06;1.60;99.90
12452;DHT22;6291;48.924;12.204;2023-03-04T17:26:10;1.70;99.90
12452;DHT22;6291;48.924;12.204;2023-03-04T17:31:16;1.60;99.90
12452;DHT22;6291;48.924;12.204;2023-03-04T17:36:21;1.60;99.90
12452;DHT22;6291;48.924;12.204;2023-03-04T17:41:24;1.60;99.90
12452;DHT22;6291;48.924;12.204;2023-03-04T17:46:28;1.50;99.90
12452;DHT22;6291;48.924;12.204;2023-03-04T17:51:34;1.60;99.90
12452;DHT22;6291;48.924;12.204;2023-03-04T17:56:38;1.50;99.90
12452;DHT22;6291;48.924;12.204;2023-03-04T18:01:43;1.50;99.90
12452;DHT22;6291;48.924;12.204;2023-03-04T18:06:48;1.50;99.90
12452;DHT22;6291;48.924;12.204;2023-03-04T18:11:51;1.50;99.90
12452;DHT22;6291;48.924;12.204;2023-03-04T18:16:54;1.60;99.90
12452;DHT22;6291;48.924;12.204;2023-03-04T18:22:00;1.60;99.90
12452;DHT22;6291;48.924;12.204;2023-03-04T18:27:03;1.60;99.90
12452;DHT22;6291;48.924;12.204;2023-03-04T18:32:06;1.70;99.90
12452;DHT22;6291;48.924;12.204;2023-03-04T18:37:11;1.70;99.90
12452;DHT22;6291;48.924;12.204;2023-03-04T18:42:15;1.70;99.90
12452;DHT22;6291;48.924;12.204;2023-03-04T18:47:18;1.60;99.90
12452;DHT22;6291;48.924;12.204;2023-03-04T18:52:24;1.70;99.90
12452;DHT22;6291;48.924;12.204;2023-03-04T18:57:27;1.60;99.90
12452;DHT22;6291;48.924;12.204;2023-03-04T19:02:33;1.60;99.90
12452;DHT22;6291;48.924;12.204;2023-03-04T19:07:39;1.60;99.90
12452;DHT22;6291;48.924;12.204;2023-03-04T19:12:42;1.60;99.90
12452;DHT22;6291;48.924;12.204;2023-03-04T19:17:46;1.60;99.90
12452;DHT22;6291;48.924;12.204;2023-03-04T19:22:51;1.60;99.90
12452;DHT22;6291;48.924;12.204;2023-03-04T19:27:54;1.60;99.90
12452;DHT22;6291;48.924;12.204;2023-03-04T19:32:58;1.60;99.90
12452;DHT22;6291;48.924;12.204;2023-03-04T19:38:02;1.50;99.90
12452;DHT22;6291;48.924;12.204;2023-03-04T19:43:06;1.60;99.90
12452;DHT22;6291;48.924;12.204;2023-03-04T19:48:10;1.50;99.90
12452;DHT22;6291;48.924;12.204;2023-03-04T19:53:15;1.50;99.90
12452;DHT22;6291;48.924;12.204;2023-03-04T19:58:19;1.60;99.90
12452;DHT22;6291;48.924;12.204;2023-03-04T20:03:23;1.50;99.90
12452;DHT22;6291;48.924;12.204;2023-03-04T20:08:28;1.60;99.90
12452;DHT22;6291;48.924;12.204;2023-03-04T20:13:32;1.60;99.90
12452;DHT22;6291;48.924;12.204;2023-03-04T20:18:35;1.50;99.90
12452;DHT22;6291;48.924;12.204;2023-03-04T20:23:40;1.60;99.90
12452;DHT22;6291;48.924;12.204;2023-03-04T20:28:44;2.40;99.90
12452;DHT22;6291;48.924;12.204;2023-03-04T20:33:49;1.50;99.90
12452;DHT22;6291;48.924;12.204;2023-03-04T20:38:55;1.60;99.90
12452;DHT22;6291;48.924;12.204;2023-03-04T20:44:04;1.60;99.90
12452;DHT22;6291;48.924;12.204;2023-03-04T20:49:10;1.60;99.90
12452;DHT22;6291;48.924;12.204;2023-03-04T20:54:15;2.20;99.90
12452;DHT22;6291;48.924;12.204;2023-03-04T20:59:19;1.60;99.90
12452;DHT22;6291;48.924;12.204;2023-03-04T21:04:23;1.60;99.90
12452;DHT22;6291;48.924;12.204;2023-03-04T21:09:28;1.50;99.90
12452;DHT22;6291;48.924;12.204;2023-03-04T21:14:32;2.30;99.90
12452;DHT22;6291;48.924;12.204;2023-03-04T21:19:37;1.50;99.90
12452;DHT22;6291;48.924;12.204;2023-03-04T21:24:45;3.50;99.90
12452;DHT22;6291;48.924;12.204;2023-03-04T21:29:49;3.40;99.90
12452;DHT22;6291;48.924;12.204;2023-03-04T21:34:54;1.50;99.90
12452;DHT22;6291;48.924;12.204;2023-03-04T21:39:59;1.50;99.90
12452;DHT22;6291;48.924;12.204;2023-03-04T21:45:04;1.80;99.90
12452;DHT22;6291;48.924;12.204;2023-03-04T21:50:09;1.50;99.90
12452;DHT22;6291;48.924;12.204;2023-03-04T21:55:14;1.50;99.90
12452;DHT22;6291;48.924;12.204;2023-03-04T22:00:18;1.70;99.90
12452;DHT22;6291;48.924;12.204;2023-03-04T22:05:22;1.40;99.90
12452;DHT22;6291;48.924;12.204;2023-03-04T22:10:27;1.80;99.90
12452;DHT22;6291;48.924;12.204;2023-03-04T22:15:32;2.60;99.90
12452;DHT22;6291;48.924;12.204;2023-03-04T22:20:36;1.40;99.90
12452;DHT22;6291;48.924;12.204;2023-03-04T22:25:42;1.40;99.90
12452;DHT22;6291;48.924;12.204;2023-03-04T22:30:45;1.30;99.90
12452;DHT22;6291;48.924;12.204;2023-03-04T22:35:49;1.40;99.90
12452;DHT22;6291;48.924;12.204;2023-03-04T22:40:54;2.20;99.90
12452;DHT22;6291;48.924;12.204;2023-03-04T22:45:57;1.30;99.90
12452;DHT22;6291;48.924;12.204;2023-03-04T22:51:04;1.80;99.90
12452;DHT22;6291;48.924;12.204;2023-03-04T22:56:11;1.30;99.90
12452;DHT22;6291;48.924;12.204;2023-03-04T23:01:16;1.30;99.90
12452;DHT22;6291;48.924;12.204;2023-03-04T23:06:24;1.50;99.90
12452;DHT22;6291;48.924;12.204;2023-03-04T23:11:31;1.30;99.90
12452;DHT22;6291;48.924;12.204;2023-03-04T23:16:37;1.30;99.90
12452;DHT22;6291;48.924;12.204;2023-03-04T23:21:43;1.30;99.90
12452;DHT22;6291;48.924;12.204;2023-03-04T23:26:48;1.30;99.90
12452;DHT22;6291;48.924;12.204;2023-03-04T23:31:53;1.30;99.90
12452;DHT22;6291;48.924;12.204;2023-03-04T23:36:56;1.30;99.90
12452;DHT22;6291;48.924;12.204;2023-03-04T23:42:01;1.30;99.90
12452;DHT22;6291;48.924;12.204;2023-03-04T23:47:05;1.20;99.90
12452;DHT22;6291;48.924;12.204;2023-03-04T23:52:08;1.20;99.90
12452;DHT22;6291;48.924;12.204;2023-03-04T23:57:13;1.20;99.90
